createdAt,value
2023-02-27T00:02:24.194Z,0.60
2023-02-27T00:04:51.130Z,0.80
2023-02-27T00:07:17.843Z,0.90
2023-02-27T00:09:44.472Z,0.60
2023-02-27T00:12:12.302Z,0.50
2023-02-27T00:14:38.967Z,0.50
2023-02-27T00:17:05.578Z,0.50
2023-02-27T00:19:32.223Z,0.60
2023-02-27T00:21:58.850Z,0.40
2023-02-27T00:24:25.638Z,0.50
2023-02-27T00:26:52.208Z,0.30
2023-02-27T00:29:19.960Z,0.40
2023-02-27T00:31:51.629Z,0.90
2023-02-27T00:34:18.466Z,0.30
2023-02-27T00:36:45.130Z,0.50
2023-02-27T00:39:20.328Z,0.40
2023-02-27T00:41:47.524Z,0.50
2023-02-27T00:44:14.152Z,0.40
2023-02-27T00:46:40.844Z,0.40
2023-02-27T00:49:07.493Z,0.60
2023-02-27T00:51:34.210Z,0.30
2023-02-27T00:54:03.820Z,0.30
2023-02-27T00:56:30.478Z,0.30
2023-02-27T00:58:57.181Z,0.30
2023-02-27T01:01:23.911Z,1.40
2023-02-27T01:03:50.588Z,0.40
2023-02-27T01:06:17.181Z,0.30
2023-02-27T01:08:43.901Z,0.40
2023-02-27T01:11:10.588Z,0.30
2023-02-27T01:13:37.548Z,0.30
2023-02-27T01:16:04.452Z,0.20
2023-02-27T01:18:31.454Z,0.20
2023-02-27T01:20:58.094Z,0.50
2023-02-27T01:23:24.732Z,0.10
2023-02-27T01:25:51.311Z,0.50
2023-02-27T01:28:17.956Z,0.60
2023-02-27T01:30:44.833Z,0.30
2023-02-27T01:33:14.365Z,0.40
2023-02-27T01:35:41.033Z,0.30
2023-02-27T01:38:07.677Z,0.30
2023-02-27T01:40:39.708Z,0.30
2023-02-27T01:43:07.612Z,0.30
2023-02-27T01:45:39.146Z,0.50
2023-02-27T01:48:05.751Z,0.30
2023-02-27T01:50:35.783Z,0.20
2023-02-27T01:53:05.319Z,0.20
2023-02-27T01:55:35.180Z,0.30
2023-02-27T01:58:01.953Z,0.30
2023-02-27T02:00:29.565Z,0.30
2023-02-27T02:03:18.652Z,1.10
2023-02-27T02:05:47.147Z,0.30
2023-02-27T02:08:18.748Z,0.50
2023-02-27T02:13:16.200Z,0.90
2023-02-27T02:15:53.732Z,0.10
2023-02-27T02:18:32.176Z,0.50
2023-02-27T02:21:28.423Z,0.30
2023-02-27T02:24:13.764Z,0.20
2023-02-27T02:27:11.977Z,0.20
2023-02-27T02:29:52.839Z,0.10
2023-02-27T02:32:53.828Z,0.10
2023-02-27T02:35:42.211Z,0.10
2023-02-27T02:38:50.256Z,0.30
2023-02-27T02:41:49.276Z,0.30
2023-02-27T02:44:19.258Z,0.30
2023-02-27T02:47:05.259Z,0.10
2023-02-27T02:49:56.189Z,0.10
2023-02-27T02:52:39.068Z,1.40
2023-02-27T02:55:24.488Z,0.20
2023-02-27T02:57:54.457Z,0.30
2023-02-27T03:00:35.540Z,0.20
2023-02-27T03:03:14.313Z,0.40
2023-02-27T03:06:01.405Z,0.40
2023-02-27T03:08:37.327Z,0.50
2023-02-27T03:11:05.587Z,0.30
2023-02-27T03:13:40.182Z,0.70
2023-02-27T03:16:13.569Z,2.10
2023-02-27T03:18:54.152Z,0.60
2023-02-27T03:21:29.933Z,0.50
2023-02-27T03:24:02.522Z,1.30
2023-02-27T03:26:35.044Z,0.30
2023-02-27T03:29:06.516Z,1.20
2023-02-27T03:31:40.776Z,0.60
2023-02-27T03:34:23.564Z,0.60
2023-02-27T03:36:56.354Z,0.50
2023-02-27T03:39:47.008Z,0.40
2023-02-27T03:42:34.643Z,0.60
2023-02-27T03:45:31.363Z,0.50
2023-02-27T03:47:58.654Z,0.90
2023-02-27T03:50:25.473Z,1.10
2023-02-27T03:52:52.880Z,0.50
2023-02-27T03:55:25.643Z,0.90
2023-02-27T03:57:53.746Z,0.50
2023-02-27T04:00:23.931Z,0.30
2023-02-27T04:02:54.271Z,0.70
2023-02-27T04:05:23.918Z,0.50
2023-02-27T04:08:02.990Z,0.60
2023-02-27T04:10:44.127Z,1.00
2023-02-27T04:13:35.563Z,1.80
2023-02-27T04:16:17.405Z,0.40
2023-02-27T04:18:56.983Z,0.70
2023-02-27T04:21:48.873Z,0.40
2023-02-27T04:24:38.107Z,1.20
2023-02-27T04:27:38.280Z,0.40
2023-02-27T04:30:19.915Z,0.40
2023-02-27T04:32:55.627Z,1.20
2023-02-27T04:35:29.431Z,0.40
2023-02-27T04:38:03.369Z,1.10
2023-02-27T04:40:39.521Z,0.80
2023-02-27T04:43:10.407Z,0.30
2023-02-27T04:45:41.375Z,0.20
2023-02-27T04:48:19.649Z,0.30
2023-02-27T04:53:25.774Z,0.40
2023-02-27T04:55:57.657Z,0.60
2023-02-27T04:58:42.364Z,1.10
2023-02-27T05:01:15.101Z,0.40
2023-02-27T05:03:47.263Z,1.10
2023-02-27T05:08:49.625Z,0.70
2023-02-27T05:11:35.746Z,0.40
2023-02-27T05:14:12.518Z,1.80
2023-02-27T05:16:45.901Z,0.50
2023-02-27T05:19:13.092Z,0.80
2023-02-27T05:22:09.636Z,0.40
2023-02-27T05:24:49.930Z,0.40
2023-02-27T05:27:22.568Z,0.50
2023-02-27T05:29:54.720Z,0.60
2023-02-27T05:32:46.589Z,0.60
2023-02-27T05:35:34.179Z,0.50
2023-02-27T05:38:36.692Z,1.70
2023-02-27T05:41:21.858Z,0.60
2023-02-27T05:44:03.591Z,0.60
2023-02-27T05:46:35.622Z,0.90
2023-02-27T05:49:11.869Z,0.60
2023-02-27T05:51:41.564Z,1.60
2023-02-27T05:54:23.224Z,0.50
2023-02-27T05:56:53.576Z,0.50
2023-02-27T05:59:59.557Z,0.50
2023-02-27T06:02:26.340Z,0.70
2023-02-27T06:04:54.842Z,0.80
2023-02-27T06:07:22.856Z,0.50
2023-02-27T06:09:50.576Z,0.50
2023-02-27T06:12:17.374Z,0.50
2023-02-27T06:14:44.044Z,0.40
2023-02-27T06:17:10.784Z,1.10
2023-02-27T06:19:37.440Z,1.30
2023-02-27T06:22:04.076Z,0.60
2023-02-27T06:24:30.746Z,0.40
2023-02-27T06:26:57.373Z,0.40
2023-02-27T06:29:23.994Z,0.70
2023-02-27T06:31:50.642Z,0.60
2023-02-27T06:34:17.543Z,0.40
2023-02-27T06:36:44.265Z,0.50
2023-02-27T06:39:10.912Z,0.50
2023-02-27T06:41:37.600Z,0.50
2023-02-27T06:44:04.211Z,1.20
2023-02-27T06:46:31.237Z,0.70
2023-02-27T06:48:58.084Z,1.60
2023-02-27T06:51:24.758Z,0.50
2023-02-27T06:53:51.424Z,0.70
2023-02-27T06:56:18.240Z,1.10
2023-02-27T06:58:44.857Z,0.60
2023-02-27T07:01:13.442Z,0.40
2023-02-27T07:03:40.160Z,0.40
2023-02-27T07:06:06.917Z,0.10
2023-02-27T07:08:33.583Z,0.50
2023-02-27T07:11:00.243Z,0.30
2023-02-27T07:13:26.809Z,0.40
2023-02-27T07:15:54.229Z,0.40
2023-02-27T07:18:21.166Z,0.20
2023-02-27T07:20:51.334Z,0.60
2023-02-27T07:23:18.869Z,0.30
2023-02-27T07:25:47.589Z,1.50
2023-02-27T07:28:15.062Z,2.90
2023-02-27T07:30:41.725Z,0.40
2023-02-27T07:33:08.650Z,0.40
2023-02-27T07:35:35.271Z,0.40
2023-02-27T07:38:02.094Z,0.50
2023-02-27T07:40:28.805Z,1.00
2023-02-27T07:42:55.533Z,0.30
2023-02-27T07:45:23.148Z,0.70
2023-02-27T07:47:49.751Z,0.70
2023-02-27T07:50:16.776Z,1.00
2023-02-27T07:52:44.400Z,0.40
2023-02-27T07:55:12.743Z,0.70
2023-02-27T07:57:39.725Z,1.40
2023-02-27T08:00:09.536Z,0.80
2023-02-27T08:02:39.782Z,1.10
2023-02-27T08:05:07.434Z,0.70
2023-02-27T08:07:34.121Z,0.70
2023-02-27T08:10:00.699Z,0.60
2023-02-27T08:12:27.274Z,0.80
2023-02-27T08:14:53.943Z,0.70
2023-02-27T08:17:20.602Z,0.60
2023-02-27T08:19:47.268Z,0.90
2023-02-27T08:22:13.854Z,2.20
2023-02-27T08:24:40.628Z,0.90
2023-02-27T08:27:07.868Z,0.90
2023-02-27T08:29:34.573Z,4.80
2023-02-27T08:32:02.232Z,1.80
2023-02-27T08:34:30.274Z,1.40
2023-02-27T08:36:56.960Z,1.00
2023-02-27T08:39:24.217Z,0.80
2023-02-27T08:41:52.858Z,1.50
2023-02-27T08:44:20.782Z,0.60
2023-02-27T08:46:47.507Z,1.10
2023-02-27T08:49:14.623Z,0.70
2023-02-27T08:51:41.317Z,0.70
2023-02-27T08:54:07.959Z,1.50
2023-02-27T08:56:35.011Z,0.80
2023-02-27T08:59:02.269Z,1.60
2023-02-27T09:01:34.302Z,1.90
2023-02-27T09:04:06.318Z,1.10
2023-02-27T09:06:35.781Z,0.70
2023-02-27T09:09:03.893Z,1.00
2023-02-27T09:11:31.083Z,0.60
2023-02-27T09:13:58.970Z,3.50
2023-02-27T09:16:25.953Z,0.50
2023-02-27T09:18:52.908Z,3.10
2023-02-27T09:21:20.549Z,0.80
2023-02-27T09:23:47.152Z,1.10
2023-02-27T09:26:13.887Z,0.70
2023-02-27T09:28:40.499Z,0.90
2023-02-27T09:31:08.024Z,1.50
2023-02-27T09:33:36.045Z,0.90
2023-02-27T09:36:05.741Z,0.40
2023-02-27T09:38:34.640Z,0.60
2023-02-27T09:41:02.830Z,2.60
2023-02-27T09:43:49.643Z,1.90
2023-02-27T09:46:21.726Z,0.90
2023-02-27T09:49:01.317Z,0.90
2023-02-27T09:51:29.068Z,1.60
2023-02-27T09:53:59.952Z,1.10
2023-02-27T09:56:31.061Z,1.80
2023-02-27T09:59:16.583Z,0.90
2023-02-27T10:02:06.086Z,0.60
2023-02-27T10:05:07.828Z,0.80
2023-02-27T10:07:52.651Z,1.00
2023-02-27T10:10:34.619Z,1.20
2023-02-27T10:13:24.047Z,0.60
2023-02-27T10:15:53.190Z,0.80
2023-02-27T10:18:28.990Z,0.60
2023-02-27T10:21:02.766Z,0.90
2023-02-27T10:23:46.830Z,1.10
2023-02-27T10:26:24.917Z,1.30
2023-02-27T10:31:26.145Z,1.10
2023-02-27T10:33:55.513Z,0.40
2023-02-27T10:36:33.605Z,0.90
2023-02-27T10:39:10.744Z,0.80
2023-02-27T10:41:40.009Z,1.00
2023-02-27T10:44:06.969Z,1.30
2023-02-27T10:46:38.244Z,0.80
2023-02-27T10:49:20.031Z,0.80
2023-02-27T10:52:04.156Z,0.90
2023-02-27T10:57:01.295Z,0.80
2023-02-27T10:59:38.341Z,0.80
2023-02-27T11:02:17.198Z,1.20
2023-02-27T11:04:56.303Z,0.90
2023-02-27T11:07:32.701Z,0.70
2023-02-27T11:10:21.849Z,0.90
2023-02-27T11:13:05.302Z,1.80
2023-02-27T11:15:38.258Z,1.30
2023-02-27T11:18:21.648Z,1.00
2023-02-27T11:20:50.884Z,1.00
2023-02-27T11:23:21.758Z,1.60
2023-02-27T11:25:48.936Z,1.10
2023-02-27T11:28:28.995Z,1.40
2023-02-27T11:31:06.091Z,1.10
2023-02-27T11:33:39.918Z,1.00
2023-02-27T11:36:07.212Z,1.50
2023-02-27T11:38:34.886Z,3.50
2023-02-27T11:41:07.554Z,1.50
2023-02-27T11:43:47.490Z,1.30
2023-02-27T11:46:46.586Z,1.30
2023-02-27T11:49:39.961Z,1.50
2023-02-27T11:52:06.610Z,1.30
2023-02-27T11:54:43.122Z,1.60
2023-02-27T11:57:32.501Z,1.50
2023-02-27T12:00:26.460Z,1.50
2023-02-27T12:03:06.808Z,1.70
2023-02-27T12:05:40.192Z,3.00
2023-02-27T12:08:15.820Z,1.30
2023-02-27T12:10:52.085Z,1.70
2023-02-27T12:13:30.215Z,1.30
2023-02-27T12:16:16.781Z,1.90
2023-02-27T12:18:54.258Z,1.40
2023-02-27T12:21:24.408Z,1.40
2023-02-27T12:23:57.586Z,4.50
2023-02-27T12:26:27.451Z,2.20
2023-02-27T12:29:09.339Z,2.90
2023-02-27T12:31:36.059Z,1.20
2023-02-27T12:34:13.021Z,2.40
2023-02-27T12:36:39.755Z,1.70
2023-02-27T12:39:23.880Z,1.10
2023-02-27T12:44:41.937Z,1.50
2023-02-27T12:47:44.546Z,1.40
2023-02-27T12:50:18.542Z,1.30
2023-02-27T12:52:45.070Z,1.60
2023-02-27T12:55:23.604Z,0.90
2023-02-27T12:58:15.263Z,2.00
2023-02-27T13:01:00.906Z,1.40
2023-02-27T13:03:35.181Z,1.60
2023-02-27T13:06:20.971Z,1.70
2023-02-27T13:09:29.254Z,1.10
2023-02-27T13:12:05.634Z,1.70
2023-02-27T13:14:44.058Z,1.70
2023-02-27T13:17:27.016Z,1.50
2023-02-27T13:20:16.535Z,0.70
2023-02-27T13:23:11.267Z,1.60
2023-02-27T13:25:43.172Z,1.40
2023-02-27T13:28:16.742Z,3.30
2023-02-27T13:30:49.090Z,2.00
2023-02-27T13:33:22.500Z,1.30
2023-02-27T13:35:52.892Z,1.80
2023-02-27T13:38:46.005Z,1.40
2023-02-27T13:41:25.070Z,1.40
2023-02-27T13:43:53.349Z,1.70
2023-02-27T13:46:27.115Z,3.40
2023-02-27T13:48:55.435Z,1.40
2023-02-27T13:51:43.265Z,2.10
2023-02-27T13:54:18.606Z,3.20
2023-02-27T13:56:54.373Z,1.30
2023-02-27T13:59:30.371Z,3.30
2023-02-27T14:02:01.876Z,1.50
2023-02-27T14:04:34.462Z,1.80
2023-02-27T14:07:18.717Z,1.90
2023-02-27T14:09:47.657Z,1.90
2023-02-27T14:12:45.352Z,1.60
2023-02-27T14:15:18.428Z,1.50
2023-02-27T14:17:49.516Z,1.00
2023-02-27T14:20:27.576Z,2.10
2023-02-27T14:23:21.310Z,2.10
2023-02-27T14:25:53.273Z,1.50
2023-02-27T14:31:08.121Z,1.60
2023-02-27T14:33:41.062Z,1.80
2023-02-27T14:36:29.599Z,1.60
2023-02-27T14:38:58.349Z,2.20
2023-02-27T14:41:36.124Z,2.30
2023-02-27T14:44:03.098Z,1.90
2023-02-27T14:46:34.709Z,2.50
2023-02-27T14:49:16.206Z,2.20
2023-02-27T14:51:43.673Z,2.80
2023-02-27T14:54:16.714Z,1.70
2023-02-27T14:56:57.063Z,3.10
2023-02-27T14:59:29.835Z,2.90
2023-02-27T15:02:02.008Z,2.70
2023-02-27T15:04:31.220Z,2.20
2023-02-27T15:06:59.917Z,2.80
2023-02-27T15:09:42.946Z,2.10
2023-02-27T15:12:16.679Z,2.70
2023-02-27T15:14:49.735Z,1.90
2023-02-27T15:17:21.914Z,2.90
2023-02-27T15:19:51.721Z,2.60
2023-02-27T15:22:39.692Z,2.00
2023-02-27T15:25:08.168Z,2.60
2023-02-27T15:27:37.674Z,2.40
2023-02-27T15:30:05.144Z,7.00
2023-02-27T15:32:43.301Z,2.70
2023-02-27T15:35:20.405Z,2.30
2023-02-27T15:37:54.039Z,2.10
2023-02-27T15:40:25.057Z,3.30
2023-02-27T15:42:52.971Z,1.70
2023-02-27T15:45:24.663Z,2.90
2023-02-27T15:47:51.547Z,1.90
2023-02-27T15:50:18.925Z,2.60
2023-02-27T15:52:55.312Z,2.50
2023-02-27T15:55:28.308Z,2.50
2023-02-27T15:58:02.877Z,2.10
2023-02-27T16:00:31.837Z,3.40
2023-02-27T16:02:59.672Z,2.50
2023-02-27T16:05:41.767Z,2.70
2023-02-27T16:08:17.382Z,3.10
2023-02-27T16:10:46.048Z,5.20
2023-02-27T16:13:33.091Z,2.90
2023-02-27T16:16:02.376Z,3.60
2023-02-27T16:18:36.188Z,2.10
2023-02-27T16:21:11.317Z,2.70
2023-02-27T16:23:38.029Z,1.80
2023-02-27T16:26:21.764Z,2.50
2023-02-27T16:29:05.510Z,2.20
2023-02-27T16:31:37.757Z,2.20
2023-02-27T16:34:13.585Z,3.90
2023-02-27T16:36:42.049Z,2.60
2023-02-27T16:39:14.714Z,2.20
2023-02-27T16:41:41.334Z,3.70
2023-02-27T16:44:07.980Z,2.90
2023-02-27T16:46:34.836Z,2.30
2023-02-27T16:49:14.215Z,2.90
2023-02-27T16:51:46.539Z,2.50
2023-02-27T16:54:14.068Z,2.70
2023-02-27T16:56:41.305Z,2.50
2023-02-27T16:59:27.759Z,2.20
2023-02-27T17:01:56.625Z,4.00
2023-02-27T17:04:27.716Z,2.50
2023-02-27T17:06:56.468Z,3.80
2023-02-27T17:09:23.344Z,2.70
2023-02-27T17:11:50.262Z,2.80
2023-02-27T17:14:17.255Z,5.40
2023-02-27T17:16:44.001Z,8.60
2023-02-27T17:19:10.654Z,5.00
2023-02-27T17:21:37.349Z,3.50
2023-02-27T17:24:04.344Z,8.20
2023-02-27T17:26:31.225Z,3.20
2023-02-27T17:28:58.613Z,3.40
2023-02-27T17:31:26.076Z,4.10
2023-02-27T17:33:53.785Z,2.80
2023-02-27T17:36:22.431Z,3.40
2023-02-27T17:38:54.775Z,3.60
2023-02-27T17:41:21.528Z,4.40
2023-02-27T17:43:53.662Z,4.40
2023-02-27T17:48:46.874Z,2.90
2023-02-27T17:51:15.238Z,4.20
2023-02-27T17:53:42.440Z,6.40
2023-02-27T17:56:10.430Z,2.50
2023-02-27T17:58:37.083Z,5.20
2023-02-27T18:01:17.274Z,3.70
2023-02-27T18:03:46.866Z,6.50
2023-02-27T18:06:13.628Z,11.40
2023-02-27T18:08:41.027Z,6.30
2023-02-27T18:11:16.880Z,4.10
2023-02-27T18:13:43.577Z,6.00
2023-02-27T18:16:12.336Z,5.40
2023-02-27T18:18:40.673Z,6.90
2023-02-27T18:21:13.925Z,4.90
2023-02-27T18:23:41.047Z,4.40
2023-02-27T18:26:12.504Z,4.70
2023-02-27T18:28:43.984Z,4.30
2023-02-27T18:31:29.604Z,4.40
2023-02-27T18:33:56.833Z,4.60
2023-02-27T18:36:23.620Z,5.40
2023-02-27T18:38:51.074Z,4.50
2023-02-27T18:41:17.765Z,7.00
2023-02-27T18:43:44.623Z,4.90
2023-02-27T18:46:12.891Z,4.00
2023-02-27T18:48:40.629Z,8.90
2023-02-27T18:51:12.286Z,6.80
2023-02-27T18:53:41.308Z,7.80
2023-02-27T18:56:09.324Z,5.10
2023-02-27T18:58:36.629Z,4.80
2023-02-27T19:01:04.802Z,3.60
2023-02-27T19:03:32.107Z,4.20
2023-02-27T19:05:59.359Z,3.20
2023-02-27T19:08:29.200Z,5.70
2023-02-27T19:10:59.316Z,3.90
2023-02-27T19:13:26.576Z,5.40
2023-02-27T19:15:53.933Z,4.10
2023-02-27T19:18:20.680Z,4.50
2023-02-27T19:20:47.660Z,5.20
2023-02-27T19:23:14.233Z,4.40
2023-02-27T19:25:42.119Z,5.10
2023-02-27T19:28:11.133Z,6.20
2023-02-27T19:30:39.874Z,5.50
2023-02-27T19:33:06.717Z,4.50
2023-02-27T19:35:33.604Z,5.00
2023-02-27T19:38:00.260Z,5.50
2023-02-27T19:40:28.166Z,5.10
2023-02-27T19:42:55.066Z,6.80
2023-02-27T19:45:22.213Z,7.50
2023-02-27T19:47:48.954Z,7.20
2023-02-27T19:50:16.418Z,7.10
2023-02-27T19:52:43.065Z,7.40
2023-02-27T19:55:10.281Z,5.50
2023-02-27T19:57:37.392Z,7.30
2023-02-27T20:00:07.895Z,6.70
2023-02-27T20:02:41.796Z,7.10
2023-02-27T20:05:08.993Z,6.80
2023-02-27T20:07:35.712Z,6.40
2023-02-27T20:10:02.342Z,5.80
2023-02-27T20:12:30.222Z,7.80
2023-02-27T20:14:57.024Z,5.80
2023-02-27T20:17:23.661Z,6.00
2023-02-27T20:19:50.394Z,7.50
2023-02-27T20:22:17.101Z,7.40
2023-02-27T20:24:44.870Z,5.60
2023-02-27T20:27:12.151Z,7.30
2023-02-27T20:29:40.509Z,7.10
2023-02-27T20:32:08.989Z,4.40
2023-02-27T20:34:35.976Z,7.00
2023-02-27T20:37:03.184Z,7.90
2023-02-27T20:39:30.486Z,7.70
2023-02-27T20:41:57.272Z,3.70
2023-02-27T20:44:24.752Z,6.50
2023-02-27T20:46:51.711Z,5.40
2023-02-27T20:49:18.808Z,6.80
2023-02-27T20:51:45.766Z,3.20
2023-02-27T20:54:16.691Z,7.60
2023-02-27T20:56:43.985Z,6.40
2023-02-27T20:59:14.438Z,6.90
2023-02-27T21:01:51.324Z,7.50
2023-02-27T21:04:42.192Z,5.50
2023-02-27T21:07:11.110Z,4.80
2023-02-27T21:09:38.045Z,6.30
2023-02-27T21:12:06.592Z,6.00
2023-02-27T21:14:33.817Z,7.60
2023-02-27T21:17:00.936Z,8.00
2023-02-27T21:19:27.640Z,5.90
2023-02-27T21:21:54.328Z,6.00
2023-02-27T21:24:21.584Z,4.80
2023-02-27T21:26:49.548Z,6.50
2023-02-27T21:29:19.651Z,7.90
2023-02-27T21:31:49.114Z,7.00
2023-02-27T21:34:20.608Z,6.20
2023-02-27T21:36:47.433Z,5.30
2023-02-27T21:39:18.877Z,6.00
2023-02-27T21:41:46.014Z,8.60
2023-02-27T21:44:15.849Z,7.00
2023-02-27T21:46:43.000Z,7.00
2023-02-27T21:49:16.885Z,7.70
2023-02-27T21:51:43.779Z,7.50
2023-02-27T21:54:12.749Z,6.50
2023-02-27T21:56:41.670Z,6.70
2023-02-27T21:59:09.328Z,5.70
2023-02-27T22:01:37.118Z,4.80
2023-02-27T22:04:04.364Z,8.20
2023-02-27T22:06:33.051Z,6.80
2023-02-27T22:09:02.939Z,8.10
2023-02-27T22:11:30.003Z,6.00
2023-02-27T22:13:57.208Z,8.90
2023-02-27T22:16:24.421Z,10.00
2023-02-27T22:18:51.877Z,8.20
2023-02-27T22:21:22.821Z,7.40
2023-02-27T22:23:50.226Z,6.10
2023-02-27T22:26:24.314Z,7.30
2023-02-27T22:28:52.415Z,5.80
2023-02-27T22:31:21.646Z,4.80
2023-02-27T22:33:51.272Z,5.60
2023-02-27T22:36:21.211Z,3.90
2023-02-27T22:38:48.759Z,5.20
2023-02-27T22:41:18.802Z,5.20
2023-02-27T22:43:46.495Z,5.30
2023-02-27T22:46:17.154Z,4.90
2023-02-27T22:48:43.942Z,4.50
2023-02-27T22:51:14.530Z,3.70
2023-02-27T22:53:46.136Z,3.90
2023-02-27T22:56:16.302Z,5.40
2023-02-27T22:58:44.934Z,4.40
2023-02-27T23:01:18.379Z,4.10
2023-02-27T23:03:47.114Z,3.40
2023-02-27T23:06:23.159Z,4.90
2023-02-27T23:08:50.008Z,5.10
2023-02-27T23:11:18.745Z,3.80
2023-02-27T23:13:45.372Z,4.10
2023-02-27T23:16:13.761Z,5.50
2023-02-27T23:18:46.304Z,2.50
2023-02-27T23:21:15.400Z,3.80
2023-02-27T23:23:42.113Z,4.20
2023-02-27T23:26:08.992Z,4.10
2023-02-27T23:28:36.846Z,3.40
2023-02-27T23:31:05.696Z,3.20
2023-02-27T23:33:33.050Z,3.90
2023-02-27T23:36:01.153Z,3.60
2023-02-27T23:38:28.517Z,3.40
2023-02-27T23:40:55.477Z,5.70
2023-02-27T23:43:41.855Z,3.20
2023-02-27T23:46:10.697Z,5.20
2023-02-27T23:48:38.035Z,3.90
2023-02-27T23:51:06.133Z,3.20
2023-02-27T23:53:34.263Z,3.90
2023-02-27T23:56:01.493Z,4.10
2023-02-27T23:58:28.210Z,3.20
